90VA weather

Hen & Bacon Airport
Orange, Virginia, United States

Public forecast

Using degrees Fahrenheit for public forecast. Weather courtesy of forecast.io.

Closest aviation weather report (METAR) to Hen & Bacon Airport

Closest report is Orange County Airport, 8.0 nm (14.9 km) ENE. Retrieved 2020/02/24 02:15 UTC (10 minutes ago):

KOMH 240215Z AUTO 00000KT 10SM CLR 03/M06 A3010 RMK AO2

Closest aviation forecast (TAF) to Hen & Bacon Airport

Closest forecast is Charlottesville Albemarle Airport, 12.3 nm (22.8 km) WSW. Retrieved 2020-02-24 00:42 UTC (2 hours ago):

TAF KCHO 232340Z 2400/2424 19005KT P6SM FEW100 SCT250 FM241200 VRB03KT P6SM SCT130 BKN250 FM241700 20005KT P6SM SCT060 OVC110 FM242000 19007KT P6SM SCT025 OVC050